sensor_id;sensor_type;location;lat;lon;timestamp;P1;durP1;ratioP1;P2;durP2;ratioP2
17147;SDS011;8689;47.364;8.796;2023-08-08T00:02:08;4.33;;;2.97;;
17147;SDS011;8689;47.364;8.796;2023-08-08T00:04:50;3.60;;;3.30;;
17147;SDS011;8689;47.364;8.796;2023-08-08T00:07:32;3.43;;;3.23;;
17147;SDS011;8689;47.364;8.796;2023-08-08T00:10:06;3.73;;;3.10;;
17147;SDS011;8689;47.364;8.796;2023-08-08T00:12:35;3.97;;;2.90;;
17147;SDS011;8689;47.364;8.796;2023-08-08T00:15:13;3.53;;;3.17;;
17147;SDS011;8689;47.364;8.796;2023-08-08T00:17:47;4.10;;;3.80;;
17147;SDS011;8689;47.364;8.796;2023-08-08T00:20:33;4.33;;;3.50;;
17147;SDS011;8689;47.364;8.796;2023-08-08T00:23:06;3.70;;;3.40;;
17147;SDS011;8689;47.364;8.796;2023-08-08T00:25:45;3.37;;;3.17;;
17147;SDS011;8689;47.364;8.796;2023-08-08T00:28:16;4.00;;;3.70;;
17147;SDS011;8689;47.364;8.796;2023-08-08T00:30:44;5.30;;;3.10;;
17147;SDS011;8689;47.364;8.796;2023-08-08T00:33:13;4.13;;;3.10;;
17147;SDS011;8689;47.364;8.796;2023-08-08T00:35:40;3.93;;;3.03;;
17147;SDS011;8689;47.364;8.796;2023-08-08T00:38:12;3.20;;;3.00;;
17147;SDS011;8689;47.364;8.796;2023-08-08T00:40:39;3.47;;;3.27;;
17147;SDS011;8689;47.364;8.796;2023-08-08T00:43:11;3.00;;;2.80;;
17147;SDS011;8689;47.364;8.796;2023-08-08T00:45:39;2.97;;;2.87;;
17147;SDS011;8689;47.364;8.796;2023-08-08T00:48:12;3.57;;;3.27;;
17147;SDS011;8689;47.364;8.796;2023-08-08T00:50:42;4.03;;;3.10;;
17147;SDS011;8689;47.364;8.796;2023-08-08T00:53:13;3.43;;;3.23;;
17147;SDS011;8689;47.364;8.796;2023-08-08T00:55:42;2.73;;;2.57;;
17147;SDS011;8689;47.364;8.796;2023-08-08T00:58:10;3.70;;;3.00;;
17147;SDS011;8689;47.364;8.796;2023-08-08T01:00:38;3.00;;;2.80;;
17147;SDS011;8689;47.364;8.796;2023-08-08T01:03:15;2.63;;;2.53;;
17147;SDS011;8689;47.364;8.796;2023-08-08T01:05:45;3.00;;;2.80;;
17147;SDS011;8689;47.364;8.796;2023-08-08T01:08:21;3.47;;;2.70;;
17147;SDS011;8689;47.364;8.796;2023-08-08T01:10:56;5.80;;;2.80;;
17147;SDS011;8689;47.364;8.796;2023-08-08T01:13:31;2.57;;;2.47;;
17147;SDS011;8689;47.364;8.796;2023-08-08T01:16:12;3.83;;;3.23;;
17147;SDS011;8689;47.364;8.796;2023-08-08T01:18:43;3.77;;;3.00;;
17147;SDS011;8689;47.364;8.796;2023-08-08T01:21:16;3.67;;;3.17;;
17147;SDS011;8689;47.364;8.796;2023-08-08T01:23:52;3.17;;;2.93;;
17147;SDS011;8689;47.364;8.796;2023-08-08T01:26:25;3.63;;;3.10;;
17147;SDS011;8689;47.364;8.796;2023-08-08T01:28:53;3.23;;;3.03;;
17147;SDS011;8689;47.364;8.796;2023-08-08T01:31:31;3.50;;;3.10;;
17147;SDS011;8689;47.364;8.796;2023-08-08T01:34:08;3.67;;;3.47;;
17147;SDS011;8689;47.364;8.796;2023-08-08T01:36:38;3.47;;;3.17;;
17147;SDS011;8689;47.364;8.796;2023-08-08T01:39:17;3.37;;;3.17;;
17147;SDS011;8689;47.364;8.796;2023-08-08T01:41:52;3.33;;;3.03;;
17147;SDS011;8689;47.364;8.796;2023-08-08T01:44:22;4.73;;;2.90;;
17147;SDS011;8689;47.364;8.796;2023-08-08T01:46:53;3.00;;;2.80;;
17147;SDS011;8689;47.364;8.796;2023-08-08T01:49:22;3.80;;;3.47;;
17147;SDS011;8689;47.364;8.796;2023-08-08T01:52:05;3.57;;;2.97;;
17147;SDS011;8689;47.364;8.796;2023-08-08T01:54:33;3.57;;;3.37;;
17147;SDS011;8689;47.364;8.796;2023-08-08T01:57:04;3.40;;;2.80;;
17147;SDS011;8689;47.364;8.796;2023-08-08T01:59:35;3.47;;;3.27;;
17147;SDS011;8689;47.364;8.796;2023-08-08T02:02:03;5.63;;;3.70;;
17147;SDS011;8689;47.364;8.796;2023-08-08T02:04:34;3.43;;;3.13;;
17147;SDS011;8689;47.364;8.796;2023-08-08T02:07:17;3.30;;;3.10;;
17147;SDS011;8689;47.364;8.796;2023-08-08T02:09:48;3.47;;;3.17;;
17147;SDS011;8689;47.364;8.796;2023-08-08T02:12:19;3.97;;;3.17;;
17147;SDS011;8689;47.364;8.796;2023-08-08T02:14:49;3.63;;;3.33;;
17147;SDS011;8689;47.364;8.796;2023-08-08T02:17:18;3.97;;;3.67;;
17147;SDS011;8689;47.364;8.796;2023-08-08T02:19:56;3.33;;;3.07;;
17147;SDS011;8689;47.364;8.796;2023-08-08T02:22:25;3.10;;;2.90;;
17147;SDS011;8689;47.364;8.796;2023-08-08T02:25:01;3.07;;;2.93;;
17147;SDS011;8689;47.364;8.796;2023-08-08T02:27:30;4.00;;;2.97;;
17147;SDS011;8689;47.364;8.796;2023-08-08T02:29:58;3.23;;;3.03;;
17147;SDS011;8689;47.364;8.796;2023-08-08T02:32:26;3.50;;;3.30;;
17147;SDS011;8689;47.364;8.796;2023-08-08T02:34:54;3.27;;;3.07;;
17147;SDS011;8689;47.364;8.796;2023-08-08T02:37:22;2.97;;;2.87;;
17147;SDS011;8689;47.364;8.796;2023-08-08T02:39:51;3.23;;;3.03;;
17147;SDS011;8689;47.364;8.796;2023-08-08T02:42:19;6.30;;;3.30;;
17147;SDS011;8689;47.364;8.796;2023-08-08T02:45:06;3.50;;;3.00;;
17147;SDS011;8689;47.364;8.796;2023-08-08T02:47:34;3.63;;;3.43;;
17147;SDS011;8689;47.364;8.796;2023-08-08T02:50:03;6.10;;;3.43;;
17147;SDS011;8689;47.364;8.796;2023-08-08T02:52:34;3.43;;;3.23;;
17147;SDS011;8689;47.364;8.796;2023-08-08T02:55:01;3.73;;;3.43;;
17147;SDS011;8689;47.364;8.796;2023-08-08T02:57:31;3.37;;;3.17;;
17147;SDS011;8689;47.364;8.796;2023-08-08T03:00:27;3.63;;;3.33;;
17147;SDS011;8689;47.364;8.796;2023-08-08T03:02:59;5.23;;;3.30;;
17147;SDS011;8689;47.364;8.796;2023-08-08T03:05:28;3.60;;;3.40;;
17147;SDS011;8689;47.364;8.796;2023-08-08T03:08:10;3.47;;;3.20;;
17147;SDS011;8689;47.364;8.796;2023-08-08T03:10:39;3.60;;;3.30;;
17147;SDS011;8689;47.364;8.796;2023-08-08T03:13:21;5.13;;;3.70;;
17147;SDS011;8689;47.364;8.796;2023-08-08T03:15:53;3.83;;;3.50;;
17147;SDS011;8689;47.364;8.796;2023-08-08T03:18:27;3.40;;;3.10;;
17147;SDS011;8689;47.364;8.796;2023-08-08T03:21:10;3.53;;;3.27;;
17147;SDS011;8689;47.364;8.796;2023-08-08T03:23:37;3.43;;;3.10;;
17147;SDS011;8689;47.364;8.796;2023-08-08T03:26:05;3.93;;;3.60;;
17147;SDS011;8689;47.364;8.796;2023-08-08T03:28:33;4.30;;;3.90;;
17147;SDS011;8689;47.364;8.796;2023-08-08T03:31:02;3.70;;;3.40;;
17147;SDS011;8689;47.364;8.796;2023-08-08T03:33:30;3.90;;;3.60;;
17147;SDS011;8689;47.364;8.796;2023-08-08T03:35:58;3.83;;;3.43;;
17147;SDS011;8689;47.364;8.796;2023-08-08T03:38:30;7.60;;;3.60;;
17147;SDS011;8689;47.364;8.796;2023-08-08T03:41:09;4.10;;;3.70;;
17147;SDS011;8689;47.364;8.796;2023-08-08T03:43:37;3.77;;;3.50;;
17147;SDS011;8689;47.364;8.796;2023-08-08T03:46:08;3.60;;;3.30;;
17147;SDS011;8689;47.364;8.796;2023-08-08T03:48:39;4.03;;;3.20;;
17147;SDS011;8689;47.364;8.796;2023-08-08T03:51:07;6.80;;;3.07;;
17147;SDS011;8689;47.364;8.796;2023-08-08T03:53:34;3.63;;;3.40;;
17147;SDS011;8689;47.364;8.796;2023-08-08T03:56:02;4.90;;;3.63;;
17147;SDS011;8689;47.364;8.796;2023-08-08T03:58:30;4.40;;;3.20;;
17147;SDS011;8689;47.364;8.796;2023-08-08T04:00:57;3.83;;;3.50;;
17147;SDS011;8689;47.364;8.796;2023-08-08T04:03:27;4.27;;;3.60;;
17147;SDS011;8689;47.364;8.796;2023-08-08T04:05:57;3.60;;;3.30;;
17147;SDS011;8689;47.364;8.796;2023-08-08T04:08:25;3.60;;;3.30;;
17147;SDS011;8689;47.364;8.796;2023-08-08T04:10:56;4.13;;;3.83;;
17147;SDS011;8689;47.364;8.796;2023-08-08T04:13:25;3.30;;;3.10;;
17147;SDS011;8689;47.364;8.796;2023-08-08T04:15:53;3.30;;;3.10;;
17147;SDS011;8689;47.364;8.796;2023-08-08T04:18:21;4.30;;;3.20;;
17147;SDS011;8689;47.364;8.796;2023-08-08T04:20:50;3.17;;;3.07;;
17147;SDS011;8689;47.364;8.796;2023-08-08T04:23:21;3.87;;;3.67;;
17147;SDS011;8689;47.364;8.796;2023-08-08T04:25:50;4.57;;;3.57;;
17147;SDS011;8689;47.364;8.796;2023-08-08T04:28:20;6.07;;;3.20;;
17147;SDS011;8689;47.364;8.796;2023-08-08T04:30:52;3.30;;;3.10;;
17147;SDS011;8689;47.364;8.796;2023-08-08T04:33:24;3.60;;;3.30;;
17147;SDS011;8689;47.364;8.796;2023-08-08T04:35:54;3.50;;;3.30;;
17147;SDS011;8689;47.364;8.796;2023-08-08T04:38:22;3.80;;;3.57;;
17147;SDS011;8689;47.364;8.796;2023-08-08T04:40:50;3.70;;;3.40;;
17147;SDS011;8689;47.364;8.796;2023-08-08T04:43:22;7.73;;;3.97;;
17147;SDS011;8689;47.364;8.796;2023-08-08T04:45:51;4.13;;;3.83;;
17147;SDS011;8689;47.364;8.796;2023-08-08T04:48:54;3.77;;;3.37;;
17147;SDS011;8689;47.364;8.796;2023-08-08T04:51:27;3.80;;;3.50;;
17147;SDS011;8689;47.364;8.796;2023-08-08T04:53:55;4.40;;;3.43;;
17147;SDS011;8689;47.364;8.796;2023-08-08T04:56:27;3.30;;;3.10;;
17147;SDS011;8689;47.364;8.796;2023-08-08T04:59:13;3.27;;;3.07;;
17147;SDS011;8689;47.364;8.796;2023-08-08T05:01:58;8.60;;;3.27;;
17147;SDS011;8689;47.364;8.796;2023-08-08T05:04:30;3.23;;;3.10;;
17147;SDS011;8689;47.364;8.796;2023-08-08T05:07:00;3.60;;;3.30;;
17147;SDS011;8689;47.364;8.796;2023-08-08T05:09:28;5.97;;;3.50;;
17147;SDS011;8689;47.364;8.796;2023-08-08T05:11:57;3.47;;;3.27;;
17147;SDS011;8689;47.364;8.796;2023-08-08T05:14:25;3.43;;;3.23;;
17147;SDS011;8689;47.364;8.796;2023-08-08T05:16:53;4.37;;;3.47;;
17147;SDS011;8689;47.364;8.796;2023-08-08T05:19:31;3.63;;;3.33;;
17147;SDS011;8689;47.364;8.796;2023-08-08T05:22:04;4.07;;;3.77;;
17147;SDS011;8689;47.364;8.796;2023-08-08T05:24:45;3.40;;;3.20;;
17147;SDS011;8689;47.364;8.796;2023-08-08T05:27:13;3.20;;;3.00;;
17147;SDS011;8689;47.364;8.796;2023-08-08T05:29:43;3.47;;;3.27;;
17147;SDS011;8689;47.364;8.796;2023-08-08T05:32:16;3.40;;;3.10;;
17147;SDS011;8689;47.364;8.796;2023-08-08T05:35:11;3.00;;;2.80;;
17147;SDS011;8689;47.364;8.796;2023-08-08T05:37:59;3.80;;;3.40;;
17147;SDS011;8689;47.364;8.796;2023-08-08T05:40:27;3.57;;;3.37;;
17147;SDS011;8689;47.364;8.796;2023-08-08T05:42:56;3.30;;;3.00;;
17147;SDS011;8689;47.364;8.796;2023-08-08T05:48:45;3.00;;;2.80;;
17147;SDS011;8689;47.364;8.796;2023-08-08T05:57:50;2.83;;;2.53;;
17147;SDS011;8689;47.364;8.796;2023-08-08T06:00:19;2.70;;;2.47;;
17147;SDS011;8689;47.364;8.796;2023-08-08T06:02:47;3.10;;;2.90;;
17147;SDS011;8689;47.364;8.796;2023-08-08T06:05:19;2.87;;;2.67;;
17147;SDS011;8689;47.364;8.796;2023-08-08T06:07:52;2.90;;;2.70;;
17147;SDS011;8689;47.364;8.796;2023-08-08T06:10:24;4.63;;;2.30;;
17147;SDS011;8689;47.364;8.796;2023-08-08T06:12:52;2.43;;;2.33;;
17147;SDS011;8689;47.364;8.796;2023-08-08T06:15:24;3.00;;;2.70;;
17147;SDS011;8689;47.364;8.796;2023-08-08T06:17:52;2.80;;;2.60;;
17147;SDS011;8689;47.364;8.796;2023-08-08T06:23:18;2.40;;;2.20;;
17147;SDS011;8689;47.364;8.796;2023-08-08T06:26:02;2.80;;;2.60;;
17147;SDS011;8689;47.364;8.796;2023-08-08T06:28:33;3.07;;;2.77;;
17147;SDS011;8689;47.364;8.796;2023-08-08T06:31:15;3.70;;;2.33;;
17147;SDS011;8689;47.364;8.796;2023-08-08T06:33:45;3.57;;;2.97;;
17147;SDS011;8689;47.364;8.796;2023-08-08T06:36:27;5.30;;;3.23;;
17147;SDS011;8689;47.364;8.796;2023-08-08T06:39:00;4.07;;;3.50;;
17147;SDS011;8689;47.364;8.796;2023-08-08T06:41:37;3.00;;;2.43;;
17147;SDS011;8689;47.364;8.796;2023-08-08T06:44:22;4.03;;;2.90;;
17147;SDS011;8689;47.364;8.796;2023-08-08T06:47:16;2.83;;;2.60;;
17147;SDS011;8689;47.364;8.796;2023-08-08T06:50:10;3.30;;;2.60;;
17147;SDS011;8689;47.364;8.796;2023-08-08T06:52:47;2.70;;;2.33;;
17147;SDS011;8689;47.364;8.796;2023-08-08T06:55:51;3.13;;;2.83;;
17147;SDS011;8689;47.364;8.796;2023-08-08T06:58:15;2.93;;;2.73;;
17147;SDS011;8689;47.364;8.796;2023-08-08T07:00:43;3.17;;;2.50;;
17147;SDS011;8689;47.364;8.796;2023-08-08T07:03:18;3.70;;;3.03;;
17147;SDS011;8689;47.364;8.796;2023-08-08T07:09:03;3.30;;;2.87;;
17147;SDS011;8689;47.364;8.796;2023-08-08T07:11:35;4.03;;;2.90;;
17147;SDS011;8689;47.364;8.796;2023-08-08T07:14:07;2.57;;;2.37;;
17147;SDS011;8689;47.364;8.796;2023-08-08T07:16:34;3.30;;;2.43;;
17147;SDS011;8689;47.364;8.796;2023-08-08T07:19:01;2.43;;;2.23;;
17147;SDS011;8689;47.364;8.796;2023-08-08T07:21:28;2.20;;;2.00;;
17147;SDS011;8689;47.364;8.796;2023-08-08T07:23:56;3.40;;;2.47;;
17147;SDS011;8689;47.364;8.796;2023-08-08T07:26:23;2.37;;;1.93;;
17147;SDS011;8689;47.364;8.796;2023-08-08T07:28:55;2.10;;;1.90;;
17147;SDS011;8689;47.364;8.796;2023-08-08T07:31:54;2.53;;;1.80;;
17147;SDS011;8689;47.364;8.796;2023-08-08T07:34:28;3.37;;;1.97;;
17147;SDS011;8689;47.364;8.796;2023-08-08T07:36:59;2.50;;;1.70;;
17147;SDS011;8689;47.364;8.796;2023-08-08T07:39:28;2.23;;;2.03;;
17147;SDS011;8689;47.364;8.796;2023-08-08T07:42:03;2.00;;;1.80;;
17147;SDS011;8689;47.364;8.796;2023-08-08T07:44:32;2.67;;;1.80;;
17147;SDS011;8689;47.364;8.796;2023-08-08T07:47:09;2.60;;;2.03;;
17147;SDS011;8689;47.364;8.796;2023-08-08T07:49:40;2.37;;;1.70;;
17147;SDS011;8689;47.364;8.796;2023-08-08T07:52:17;2.67;;;2.30;;
17147;SDS011;8689;47.364;8.796;2023-08-08T07:55:07;2.00;;;1.80;;
17147;SDS011;8689;47.364;8.796;2023-08-08T07:57:36;2.20;;;1.83;;
17147;SDS011;8689;47.364;8.796;2023-08-08T08:00:15;3.53;;;2.50;;
17147;SDS011;8689;47.364;8.796;2023-08-08T08:02:51;3.03;;;2.47;;
17147;SDS011;8689;47.364;8.796;2023-08-08T08:05:20;4.37;;;2.10;;
17147;SDS011;8689;47.364;8.796;2023-08-08T08:07:56;3.27;;;1.97;;
17147;SDS011;8689;47.364;8.796;2023-08-08T08:10:37;4.10;;;2.03;;
17147;SDS011;8689;47.364;8.796;2023-08-08T08:16:28;2.57;;;1.97;;
17147;SDS011;8689;47.364;8.796;2023-08-08T08:21:58;1.50;;;1.40;;
17147;SDS011;8689;47.364;8.796;2023-08-08T08:24:33;2.10;;;1.33;;
17147;SDS011;8689;47.364;8.796;2023-08-08T08:27:15;2.07;;;1.77;;
17147;SDS011;8689;47.364;8.796;2023-08-08T08:29:53;2.03;;;1.47;;
17147;SDS011;8689;47.364;8.796;2023-08-08T08:32:36;2.07;;;1.50;;
17147;SDS011;8689;47.364;8.796;2023-08-08T08:35:23;1.30;;;1.20;;
17147;SDS011;8689;47.364;8.796;2023-08-08T08:37:54;1.20;;;1.10;;
17147;SDS011;8689;47.364;8.796;2023-08-08T08:40:31;3.37;;;1.20;;
17147;SDS011;8689;47.364;8.796;2023-08-08T08:43:02;2.03;;;1.43;;
17147;SDS011;8689;47.364;8.796;2023-08-08T08:45:31;1.30;;;1.20;;
17147;SDS011;8689;47.364;8.796;2023-08-08T08:47:59;2.83;;;1.47;;
17147;SDS011;8689;47.364;8.796;2023-08-08T08:50:29;1.67;;;1.30;;
17147;SDS011;8689;47.364;8.796;2023-08-08T08:52:59;3.73;;;1.40;;
17147;SDS011;8689;47.364;8.796;2023-08-08T08:55:27;1.93;;;1.10;;
17147;SDS011;8689;47.364;8.796;2023-08-08T08:57:54;1.57;;;1.20;;
17147;SDS011;8689;47.364;8.796;2023-08-08T09:00:22;1.43;;;1.20;;
17147;SDS011;8689;47.364;8.796;2023-08-08T09:02:49;1.47;;;0.97;;
17147;SDS011;8689;47.364;8.796;2023-08-08T09:05:17;3.07;;;1.30;;
17147;SDS011;8689;47.364;8.796;2023-08-08T09:07:48;1.40;;;1.20;;
17147;SDS011;8689;47.364;8.796;2023-08-08T09:10:16;1.43;;;1.33;;
17147;SDS011;8689;47.364;8.796;2023-08-08T09:12:44;2.93;;;1.33;;
17147;SDS011;8689;47.364;8.796;2023-08-08T09:15:12;1.27;;;1.17;;
17147;SDS011;8689;47.364;8.796;2023-08-08T09:17:40;1.30;;;1.20;;
17147;SDS011;8689;47.364;8.796;2023-08-08T09:20:08;1.70;;;1.00;;
17147;SDS011;8689;47.364;8.796;2023-08-08T09:22:37;4.93;;;1.07;;
17147;SDS011;8689;47.364;8.796;2023-08-08T09:25:09;1.35;;;1.25;;
17147;SDS011;8689;47.364;8.796;2023-08-08T09:27:40;1.45;;;1.10;;
17147;SDS011;8689;47.364;8.796;2023-08-08T09:30:12;1.17;;;1.08;;
17147;SDS011;8689;47.364;8.796;2023-08-08T09:32:45;1.40;;;1.25;;
17147;SDS011;8689;47.364;8.796;2023-08-08T09:35:13;1.23;;;1.10;;
17147;SDS011;8689;47.364;8.796;2023-08-08T09:37:54;0.98;;;0.80;;
17147;SDS011;8689;47.364;8.796;2023-08-08T09:40:23;2.50;;;1.30;;
17147;SDS011;8689;47.364;8.796;2023-08-08T09:42:51;2.78;;;1.10;;
17147;SDS011;8689;47.364;8.796;2023-08-08T09:45:18;0.88;;;0.88;;
17147;SDS011;8689;47.364;8.796;2023-08-08T09:47:45;1.25;;;1.02;;
17147;SDS011;8689;47.364;8.796;2023-08-08T09:50:12;1.98;;;1.05;;
17147;SDS011;8689;47.364;8.796;2023-08-08T09:52:40;1.52;;;1.20;;
17147;SDS011;8689;47.364;8.796;2023-08-08T09:55:08;2.13;;;1.10;;
17147;SDS011;8689;47.364;8.796;2023-08-08T09:57:50;1.48;;;1.00;;
17147;SDS011;8689;47.364;8.796;2023-08-08T10:00:19;1.90;;;1.60;;
17147;SDS011;8689;47.364;8.796;2023-08-08T10:02:49;4.97;;;1.40;;
17147;SDS011;8689;47.364;8.796;2023-08-08T10:05:43;2.63;;;1.10;;
17147;SDS011;8689;47.364;8.796;2023-08-08T10:08:22;2.58;;;1.08;;
17147;SDS011;8689;47.364;8.796;2023-08-08T10:11:01;1.65;;;0.98;;
17147;SDS011;8689;47.364;8.796;2023-08-08T10:13:36;2.15;;;1.40;;
17147;SDS011;8689;47.364;8.796;2023-08-08T10:16:04;2.53;;;1.20;;
17147;SDS011;8689;47.364;8.796;2023-08-08T10:18:35;1.75;;;1.45;;
17147;SDS011;8689;47.364;8.796;2023-08-08T10:21:03;1.98;;;1.10;;
17147;SDS011;8689;47.364;8.796;2023-08-08T10:23:35;1.30;;;1.10;;
17147;SDS011;8689;47.364;8.796;2023-08-08T10:26:03;1.85;;;0.80;;
17147;SDS011;8689;47.364;8.796;2023-08-08T10:28:31;1.23;;;1.08;;
17147;SDS011;8689;47.364;8.796;2023-08-08T10:31:01;0.77;;;0.65;;
17147;SDS011;8689;47.364;8.796;2023-08-08T10:33:39;1.13;;;1.02;;
17147;SDS011;8689;47.364;8.796;2023-08-08T10:36:16;1.33;;;0.90;;
17147;SDS011;8689;47.364;8.796;2023-08-08T10:39:02;2.50;;;0.95;;
17147;SDS011;8689;47.364;8.796;2023-08-08T10:41:43;1.98;;;0.90;;
17147;SDS011;8689;47.364;8.796;2023-08-08T10:44:12;1.40;;;0.93;;
17147;SDS011;8689;47.364;8.796;2023-08-08T10:46:56;1.30;;;0.98;;
17147;SDS011;8689;47.364;8.796;2023-08-08T10:49:34;1.05;;;0.95;;
17147;SDS011;8689;47.364;8.796;2023-08-08T10:52:05;2.42;;;0.98;;
17147;SDS011;8689;47.364;8.796;2023-08-08T10:54:51;2.42;;;1.05;;
17147;SDS011;8689;47.364;8.796;2023-08-08T10:57:33;1.50;;;0.90;;
17147;SDS011;8689;47.364;8.796;2023-08-08T11:00:23;1.58;;;1.02;;
17147;SDS011;8689;47.364;8.796;2023-08-08T12:07:58;1.70;;;0.80;;
17147;SDS011;8689;47.364;8.796;2023-08-08T12:10:25;1.27;;;0.70;;
17147;SDS011;8689;47.364;8.796;2023-08-08T12:12:52;1.23;;;0.77;;
17147;SDS011;8689;47.364;8.796;2023-08-08T12:15:22;1.17;;;0.90;;
17147;SDS011;8689;47.364;8.796;2023-08-08T12:17:49;1.92;;;0.80;;
17147;SDS011;8689;47.364;8.796;2023-08-08T12:20:18;1.23;;;0.95;;
17147;SDS011;8689;47.364;8.796;2023-08-08T12:22:45;2.35;;;0.85;;
17147;SDS011;8689;47.364;8.796;2023-08-08T12:25:13;0.80;;;0.80;;
17147;SDS011;8689;47.364;8.796;2023-08-08T12:27:39;1.63;;;0.73;;
17147;SDS011;8689;47.364;8.796;2023-08-08T12:30:07;1.73;;;0.77;;
17147;SDS011;8689;47.364;8.796;2023-08-08T12:32:35;1.48;;;0.85;;
17147;SDS011;8689;47.364;8.796;2023-08-08T12:35:02;3.47;;;0.75;;
17147;SDS011;8689;47.364;8.796;2023-08-08T12:37:31;0.75;;;0.68;;
17147;SDS011;8689;47.364;8.796;2023-08-08T12:39:58;1.65;;;0.70;;
17147;SDS011;8689;47.364;8.796;2023-08-08T12:42:27;0.82;;;0.63;;
17147;SDS011;8689;47.364;8.796;2023-08-08T12:44:54;2.47;;;0.77;;
17147;SDS011;8689;47.364;8.796;2023-08-08T12:47:21;1.80;;;0.80;;
17147;SDS011;8689;47.364;8.796;2023-08-08T12:49:48;2.05;;;0.95;;
17147;SDS011;8689;47.364;8.796;2023-08-08T12:52:17;1.73;;;0.90;;
17147;SDS011;8689;47.364;8.796;2023-08-08T12:54:46;0.90;;;0.70;;
17147;SDS011;8689;47.364;8.796;2023-08-08T12:57:16;1.88;;;0.90;;
17147;SDS011;8689;47.364;8.796;2023-08-08T12:59:43;1.65;;;0.80;;
17147;SDS011;8689;47.364;8.796;2023-08-08T13:02:10;1.90;;;0.80;;
17147;SDS011;8689;47.364;8.796;2023-08-08T13:04:38;1.10;;;0.80;;
17147;SDS011;8689;47.364;8.796;2023-08-08T13:07:05;1.67;;;0.77;;
17147;SDS011;8689;47.364;8.796;2023-08-08T13:09:32;2.25;;;0.95;;
17147;SDS011;8689;47.364;8.796;2023-08-08T13:12:01;1.40;;;1.15;;
17147;SDS011;8689;47.364;8.796;2023-08-08T13:14:28;1.02;;;0.82;;
17147;SDS011;8689;47.364;8.796;2023-08-08T13:16:55;1.02;;;0.80;;
17147;SDS011;8689;47.364;8.796;2023-08-08T13:19:22;0.68;;;0.60;;
17147;SDS011;8689;47.364;8.796;2023-08-08T13:21:51;4.72;;;1.00;;
17147;SDS011;8689;47.364;8.796;2023-08-08T13:24:19;1.73;;;0.98;;
17147;SDS011;8689;47.364;8.796;2023-08-08T13:26:48;1.02;;;0.70;;
17147;SDS011;8689;47.364;8.796;2023-08-08T13:29:18;1.38;;;0.63;;
17147;SDS011;8689;47.364;8.796;2023-08-08T13:31:45;1.48;;;0.80;;
17147;SDS011;8689;47.364;8.796;2023-08-08T13:34:13;2.08;;;1.00;;
17147;SDS011;8689;47.364;8.796;2023-08-08T13:36:40;2.22;;;0.85;;
17147;SDS011;8689;47.364;8.796;2023-08-08T13:39:11;1.20;;;0.90;;
17147;SDS011;8689;47.364;8.796;2023-08-08T13:41:42;1.25;;;0.82;;
17147;SDS011;8689;47.364;8.796;2023-08-08T13:44:09;1.15;;;0.70;;
17147;SDS011;8689;47.364;8.796;2023-08-08T13:46:38;1.40;;;0.90;;
17147;SDS011;8689;47.364;8.796;2023-08-08T13:49:06;1.33;;;0.90;;
17147;SDS011;8689;47.364;8.796;2023-08-08T13:51:32;2.38;;;0.80;;
17147;SDS011;8689;47.364;8.796;2023-08-08T13:54:00;1.23;;;0.93;;
17147;SDS011;8689;47.364;8.796;2023-08-08T13:56:27;1.20;;;0.70;;
17147;SDS011;8689;47.364;8.796;2023-08-08T13:58:54;2.20;;;1.08;;
17147;SDS011;8689;47.364;8.796;2023-08-08T14:01:21;2.97;;;1.00;;
17147;SDS011;8689;47.364;8.796;2023-08-08T14:03:50;5.05;;;1.10;;
17147;SDS011;8689;47.364;8.796;2023-08-08T14:06:17;2.95;;;0.80;;
17147;SDS011;8689;47.364;8.796;2023-08-08T14:08:46;1.27;;;0.88;;
17147;SDS011;8689;47.364;8.796;2023-08-08T14:11:14;0.90;;;0.82;;
17147;SDS011;8689;47.364;8.796;2023-08-08T14:13:41;2.22;;;1.17;;
17147;SDS011;8689;47.364;8.796;2023-08-08T14:16:08;0.85;;;0.60;;
17147;SDS011;8689;47.364;8.796;2023-08-08T14:18:35;1.92;;;1.00;;
17147;SDS011;8689;47.364;8.796;2023-08-08T14:21:04;3.92;;;0.70;;
17147;SDS011;8689;47.364;8.796;2023-08-08T14:23:32;3.28;;;1.05;;
17147;SDS011;8689;47.364;8.796;2023-08-08T14:26:00;1.02;;;0.80;;
17147;SDS011;8689;47.364;8.796;2023-08-08T14:28:28;1.20;;;0.85;;
17147;SDS011;8689;47.364;8.796;2023-08-08T14:30:56;2.05;;;0.90;;
17147;SDS011;8689;47.364;8.796;2023-08-08T14:33:24;0.85;;;0.70;;
17147;SDS011;8689;47.364;8.796;2023-08-08T14:35:58;0.93;;;0.70;;
17147;SDS011;8689;47.364;8.796;2023-08-08T14:38:33;3.63;;;0.95;;
17147;SDS011;8689;47.364;8.796;2023-08-08T14:41:01;1.42;;;0.70;;
17147;SDS011;8689;47.364;8.796;2023-08-08T14:43:29;1.20;;;0.52;;
17147;SDS011;8689;47.364;8.796;2023-08-08T14:45:57;1.10;;;0.90;;
17147;SDS011;8689;47.364;8.796;2023-08-08T14:48:25;2.20;;;0.98;;
17147;SDS011;8689;47.364;8.796;2023-08-08T14:50:52;1.85;;;0.70;;
17147;SDS011;8689;47.364;8.796;2023-08-08T14:53:20;0.93;;;0.73;;
17147;SDS011;8689;47.364;8.796;2023-08-08T14:55:49;0.85;;;0.65;;
17147;SDS011;8689;47.364;8.796;2023-08-08T14:58:17;1.17;;;0.88;;
17147;SDS011;8689;47.364;8.796;2023-08-08T15:00:44;2.20;;;0.93;;
17147;SDS011;8689;47.364;8.796;2023-08-08T15:03:12;2.08;;;0.90;;
17147;SDS011;8689;47.364;8.796;2023-08-08T15:05:40;1.52;;;0.90;;
17147;SDS011;8689;47.364;8.796;2023-08-08T15:08:13;0.90;;;0.70;;
17147;SDS011;8689;47.364;8.796;2023-08-08T15:10:41;1.80;;;1.20;;
17147;SDS011;8689;47.364;8.796;2023-08-08T15:13:10;1.67;;;0.95;;
17147;SDS011;8689;47.364;8.796;2023-08-08T15:15:37;1.23;;;0.75;;
17147;SDS011;8689;47.364;8.796;2023-08-08T15:18:05;1.73;;;0.75;;
17147;SDS011;8689;47.364;8.796;2023-08-08T15:20:32;1.33;;;0.75;;
17147;SDS011;8689;47.364;8.796;2023-08-08T15:22:59;1.38;;;0.90;;
17147;SDS011;8689;47.364;8.796;2023-08-08T15:25:27;5.60;;;0.75;;
17147;SDS011;8689;47.364;8.796;2023-08-08T15:27:57;1.73;;;0.70;;
17147;SDS011;8689;47.364;8.796;2023-08-08T15:30:27;3.13;;;1.08;;
17147;SDS011;8689;47.364;8.796;2023-08-08T15:32:55;2.80;;;1.67;;
17147;SDS011;8689;47.364;8.796;2023-08-08T15:35:24;2.22;;;0.70;;
17147;SDS011;8689;47.364;8.796;2023-08-08T15:37:51;0.95;;;0.85;;
17147;SDS011;8689;47.364;8.796;2023-08-08T15:40:19;2.40;;;1.20;;
17147;SDS011;8689;47.364;8.796;2023-08-08T15:42:46;0.95;;;0.70;;
17147;SDS011;8689;47.364;8.796;2023-08-08T15:45:13;1.75;;;0.70;;
17147;SDS011;8689;47.364;8.796;2023-08-08T15:47:43;1.23;;;1.10;;
17147;SDS011;8689;47.364;8.796;2023-08-08T15:50:10;1.60;;;0.85;;
17147;SDS011;8689;47.364;8.796;2023-08-08T15:52:37;2.67;;;1.20;;
17147;SDS011;8689;47.364;8.796;2023-08-08T15:55:05;2.97;;;1.17;;
17147;SDS011;8689;47.364;8.796;2023-08-08T15:57:34;1.88;;;0.98;;
17147;SDS011;8689;47.364;8.796;2023-08-08T16:00:02;2.40;;;1.02;;
17147;SDS011;8689;47.364;8.796;2023-08-08T16:02:32;0.95;;;0.85;;
17147;SDS011;8689;47.364;8.796;2023-08-08T16:05:04;2.35;;;1.40;;
17147;SDS011;8689;47.364;8.796;2023-08-08T16:07:33;2.65;;;1.42;;
17147;SDS011;8689;47.364;8.796;2023-08-08T16:10:06;2.92;;;1.23;;
17147;SDS011;8689;47.364;8.796;2023-08-08T16:12:37;1.67;;;1.40;;
17147;SDS011;8689;47.364;8.796;2023-08-08T16:15:08;3.92;;;1.05;;
17147;SDS011;8689;47.364;8.796;2023-08-08T16:17:38;1.83;;;1.27;;
17147;SDS011;8689;47.364;8.796;2023-08-08T16:20:08;1.67;;;1.13;;
17147;SDS011;8689;47.364;8.796;2023-08-08T16:22:37;1.60;;;1.50;;
17147;SDS011;8689;47.364;8.796;2023-08-08T16:25:05;2.70;;;1.57;;
17147;SDS011;8689;47.364;8.796;2023-08-08T16:27:32;2.13;;;1.67;;
17147;SDS011;8689;47.364;8.796;2023-08-08T16:30:00;2.07;;;1.40;;
17147;SDS011;8689;47.364;8.796;2023-08-08T16:32:28;2.57;;;1.43;;
17147;SDS011;8689;47.364;8.796;2023-08-08T16:34:56;2.53;;;1.70;;
17147;SDS011;8689;47.364;8.796;2023-08-08T16:37:26;1.67;;;1.57;;
17147;SDS011;8689;47.364;8.796;2023-08-08T16:39:54;4.83;;;1.70;;
17147;SDS011;8689;47.364;8.796;2023-08-08T16:42:22;2.33;;;1.50;;
17147;SDS011;8689;47.364;8.796;2023-08-08T16:44:49;1.83;;;1.37;;
17147;SDS011;8689;47.364;8.796;2023-08-08T16:47:17;6.50;;;1.30;;
17147;SDS011;8689;47.364;8.796;2023-08-08T16:49:58;4.67;;;1.60;;
17147;SDS011;8689;47.364;8.796;2023-08-08T16:52:26;2.80;;;1.50;;
17147;SDS011;8689;47.364;8.796;2023-08-08T16:54:53;2.07;;;1.60;;